createdAt,value
2022-10-11T00:01:04.608Z,20.60
2022-10-11T00:04:06.293Z,18.73
2022-10-11T00:07:07.894Z,19.40
2022-10-11T00:10:09.810Z,19.17
2022-10-11T00:13:11.412Z,20.00
2022-10-11T00:16:13.338Z,21.77
2022-10-11T00:19:14.875Z,21.87
2022-10-11T00:22:16.506Z,19.92
2022-10-11T00:25:21.818Z,22.33
2022-10-11T00:28:23.425Z,21.35
2022-10-11T00:31:25.076Z,21.80
2022-10-11T00:34:26.644Z,19.83
2022-10-11T00:37:28.217Z,21.58
2022-10-11T00:40:29.775Z,21.35
2022-10-11T00:43:31.534Z,23.92
2022-10-11T00:46:33.282Z,21.85
2022-10-11T00:49:53.685Z,24.27
2022-10-11T00:52:57.115Z,21.95
2022-10-11T00:56:08.830Z,22.83
2022-10-11T00:59:13.043Z,20.00
2022-10-11T01:02:14.683Z,22.40
2022-10-11T01:05:29.137Z,21.33
2022-10-11T01:08:31.730Z,22.58
2022-10-11T01:11:37.291Z,21.38
2022-10-11T01:14:54.676Z,22.85
2022-10-11T01:18:05.338Z,21.33
2022-10-11T01:21:28.856Z,22.17
2022-10-11T01:24:36.408Z,21.20
2022-10-11T01:28:07.995Z,26.67
2022-10-11T01:31:23.137Z,22.50
2022-10-11T01:34:46.710Z,21.30
2022-10-11T01:37:59.999Z,23.23
2022-10-11T01:41:10.289Z,23.52
2022-10-11T01:44:11.900Z,22.10
2022-10-11T01:47:14.184Z,22.13
2022-10-11T01:50:55.341Z,22.10
2022-10-11T01:54:08.787Z,18.83
2022-10-11T01:57:16.224Z,21.08
2022-10-11T02:00:25.929Z,21.50
2022-10-11T02:03:34.068Z,25.08
2022-10-11T02:06:43.853Z,24.43
2022-10-11T02:09:50.883Z,22.10
2022-10-11T02:13:17.567Z,24.45
2022-10-11T02:16:20.610Z,24.35
2022-10-11T02:19:24.806Z,24.83
2022-10-11T02:22:35.844Z,23.07
2022-10-11T02:25:37.806Z,24.17
2022-10-11T02:28:39.915Z,24.55
2022-10-11T02:31:41.683Z,25.65
2022-10-11T02:34:50.076Z,25.90
2022-10-11T02:38:00.580Z,27.50
2022-10-11T02:41:11.861Z,24.00
2022-10-11T02:44:20.696Z,26.63
2022-10-11T02:47:22.261Z,27.45
2022-10-11T02:50:23.910Z,26.47
2022-10-11T02:53:25.836Z,24.50
2022-10-11T02:56:27.432Z,28.15
2022-10-11T02:59:29.026Z,27.35
2022-10-11T03:02:30.621Z,29.10
2022-10-11T03:05:37.166Z,27.67
2022-10-11T03:08:38.762Z,33.10
2022-10-11T03:11:40.340Z,27.67
2022-10-11T03:14:41.913Z,25.60
2022-10-11T03:17:43.510Z,28.23
2022-10-11T03:20:45.085Z,28.40
2022-10-11T03:23:46.661Z,30.07
2022-10-11T03:26:48.345Z,31.00
2022-10-11T03:29:49.879Z,29.88
2022-10-11T03:32:51.446Z,30.27
2022-10-11T03:35:52.999Z,28.00
2022-10-11T03:38:54.556Z,32.00
2022-10-11T03:41:56.116Z,29.83
2022-10-11T03:44:59.787Z,31.08
2022-10-11T03:48:01.495Z,30.75
2022-10-11T03:51:03.125Z,31.40
2022-10-11T03:54:04.742Z,28.17
2022-10-11T03:57:06.379Z,26.85
2022-10-11T04:00:08.429Z,29.38
2022-10-11T04:03:10.029Z,31.92
2022-10-11T04:06:11.625Z,26.90
2022-10-11T04:09:13.199Z,30.17
2022-10-11T04:12:14.798Z,28.40
2022-10-11T04:15:16.637Z,26.30
2022-10-11T04:18:18.249Z,27.27
2022-10-11T04:21:19.818Z,32.33
2022-10-11T04:24:21.398Z,31.27
2022-10-11T04:27:23.273Z,27.95
2022-10-11T04:30:24.832Z,29.67
2022-10-11T04:33:26.461Z,32.13
2022-10-11T04:36:28.198Z,27.87
2022-10-11T04:39:29.802Z,33.00
2022-10-11T04:42:31.387Z,32.75
2022-10-11T04:45:33.023Z,28.98
2022-10-11T04:48:34.654Z,30.08
2022-10-11T04:51:36.299Z,31.53
2022-10-11T04:54:37.842Z,28.27
2022-10-11T04:57:39.471Z,28.25
2022-10-11T05:00:41.873Z,29.67
2022-10-11T05:03:43.508Z,29.77
2022-10-11T05:06:45.140Z,30.00
2022-10-11T05:09:46.790Z,29.03
2022-10-11T05:12:48.374Z,28.00
2022-10-11T05:15:49.981Z,30.25
2022-10-11T05:18:51.556Z,30.10
2022-10-11T05:21:54.947Z,30.27
2022-10-11T05:24:56.701Z,30.00
2022-10-11T05:27:58.284Z,33.22
2022-10-11T05:30:59.875Z,32.15
2022-10-11T05:34:01.438Z,31.98
2022-10-11T05:37:03.120Z,30.33
2022-10-11T05:40:05.204Z,30.00
2022-10-11T05:43:07.127Z,30.85
2022-10-11T05:46:08.983Z,29.00
2022-10-11T05:49:10.686Z,27.30
2022-10-11T05:52:13.261Z,29.50
2022-10-11T05:55:14.845Z,30.10
2022-10-11T05:58:18.622Z,28.55
2022-10-11T06:01:24.961Z,30.88
2022-10-11T06:04:27.076Z,26.80
2022-10-11T06:07:28.673Z,30.27
2022-10-11T06:10:30.219Z,28.40
2022-10-11T06:13:32.298Z,29.42
2022-10-11T06:16:33.910Z,24.90
2022-10-11T06:19:35.805Z,26.38
2022-10-11T06:22:37.365Z,28.83
2022-10-11T06:25:39.036Z,28.63
2022-10-11T06:28:40.920Z,25.77
2022-10-11T06:31:46.085Z,27.95
2022-10-11T06:34:47.677Z,25.83
2022-10-11T06:37:49.362Z,26.47
2022-10-11T06:40:50.953Z,24.43
2022-10-11T06:43:52.546Z,24.08
2022-10-11T06:46:54.186Z,23.63
2022-10-11T06:49:55.746Z,26.90
2022-10-11T06:52:57.547Z,26.30
2022-10-11T06:56:07.756Z,24.93
2022-10-11T06:59:09.595Z,23.42
2022-10-11T07:02:11.259Z,26.15
2022-10-11T07:05:12.901Z,23.23
2022-10-11T07:08:14.514Z,22.97
2022-10-11T07:11:26.928Z,25.57
2022-10-11T07:14:28.631Z,26.70
2022-10-11T07:17:30.361Z,24.17
2022-10-11T07:20:32.280Z,26.67
2022-10-11T07:23:33.936Z,24.17
2022-10-11T07:26:38.610Z,24.93
2022-10-11T07:29:40.871Z,25.70
2022-10-11T07:32:42.584Z,23.88
2022-10-11T07:35:48.216Z,22.80
2022-10-11T07:38:50.602Z,23.57
2022-10-11T07:41:52.248Z,23.87
2022-10-11T07:44:54.334Z,24.13
2022-10-11T07:47:56.704Z,22.88
2022-10-11T07:51:03.407Z,21.45
2022-10-11T07:54:07.438Z,26.07
2022-10-11T07:57:09.266Z,22.67
2022-10-11T08:00:11.413Z,25.88
2022-10-11T08:03:15.448Z,24.52
2022-10-11T08:06:18.953Z,20.15
2022-10-11T08:09:20.556Z,21.40
2022-10-11T08:12:22.231Z,20.63
2022-10-11T08:15:23.838Z,21.45
2022-10-11T08:18:25.701Z,22.73
2022-10-11T08:21:27.287Z,22.95
2022-10-11T08:24:28.885Z,20.00
2022-10-11T08:27:30.597Z,21.50
2022-10-11T08:30:32.838Z,23.50
2022-10-11T08:33:34.633Z,21.98
2022-10-11T08:36:36.374Z,23.40
2022-10-11T08:39:37.957Z,22.63
2022-10-11T08:42:43.443Z,21.47
2022-10-11T08:45:52.398Z,22.27
2022-10-11T08:48:53.998Z,20.00
2022-10-11T08:52:00.198Z,19.83
2022-10-11T08:55:08.239Z,22.17
2022-10-11T08:58:15.719Z,19.23
2022-10-11T09:01:20.909Z,20.42
2022-10-11T09:04:22.539Z,17.88
2022-10-11T09:07:33.395Z,16.13
2022-10-11T09:10:50.112Z,17.87
2022-10-11T09:14:00.611Z,17.50
2022-10-11T09:17:28.650Z,19.83
2022-10-11T09:20:44.571Z,24.90
2022-10-11T09:24:17.177Z,23.52
2022-10-11T09:27:33.057Z,18.90
2022-10-11T09:30:50.991Z,17.90
2022-10-11T09:33:52.845Z,17.67
2022-10-11T09:37:14.928Z,18.75
2022-10-11T09:40:19.319Z,19.08
2022-10-11T09:43:21.057Z,20.87
2022-10-11T09:46:42.848Z,19.77
2022-10-11T09:50:06.642Z,22.20
2022-10-11T09:53:08.333Z,20.38
2022-10-11T09:56:10.203Z,20.00
2022-10-11T09:59:31.418Z,21.47
2022-10-11T10:02:42.201Z,20.40
2022-10-11T10:05:43.771Z,19.08
2022-10-11T10:08:47.368Z,18.73
2022-10-11T10:11:48.952Z,19.45
2022-10-11T10:15:06.172Z,19.73
2022-10-11T10:18:10.494Z,17.40
2022-10-11T10:21:13.727Z,20.60
2022-10-11T10:24:51.129Z,21.63
2022-10-11T10:27:59.811Z,18.08
2022-10-11T10:31:01.395Z,20.70
2022-10-11T10:34:03.152Z,19.37
2022-10-11T10:37:43.352Z,18.88
2022-10-11T10:40:49.814Z,17.77
2022-10-11T10:43:56.779Z,19.33
2022-10-11T10:47:21.430Z,20.10
2022-10-11T10:50:27.417Z,18.10
2022-10-11T10:53:49.640Z,15.13
2022-10-11T10:56:53.510Z,19.35
2022-10-11T10:59:57.987Z,18.38
2022-10-11T11:03:03.909Z,18.77
2022-10-11T11:06:12.306Z,16.80
2022-10-11T11:09:30.089Z,18.92
2022-10-11T11:12:31.594Z,18.08
2022-10-11T11:15:46.709Z,17.08
2022-10-11T11:19:00.380Z,18.40
2022-10-11T11:22:17.280Z,17.37
2022-10-11T11:25:31.170Z,17.33
2022-10-11T11:28:45.131Z,17.58
2022-10-11T11:31:46.769Z,18.13
2022-10-11T11:34:52.031Z,19.13
2022-10-11T11:38:02.576Z,18.67
2022-10-11T11:41:13.216Z,17.83
2022-10-11T11:44:27.141Z,19.10
2022-10-11T11:47:40.640Z,18.20
2022-10-11T11:50:43.949Z,17.00
2022-10-11T11:54:08.344Z,15.93
2022-10-11T11:57:23.335Z,16.52
2022-10-11T12:00:27.720Z,16.38
2022-10-11T12:03:41.776Z,18.83
2022-10-11T12:07:04.087Z,18.40
2022-10-11T12:10:24.528Z,17.60
2022-10-11T12:13:31.319Z,17.90
2022-10-11T12:16:34.384Z,18.80
2022-10-11T12:19:37.275Z,19.63
2022-10-11T12:22:49.465Z,17.67
2022-10-11T12:26:28.190Z,16.83
2022-10-11T12:29:47.060Z,16.88
2022-10-11T12:32:49.178Z,16.50
2022-10-11T12:35:53.760Z,18.90
2022-10-11T12:39:20.039Z,18.43
2022-10-11T12:42:32.412Z,18.47
2022-10-11T12:45:34.377Z,19.08
2022-10-11T12:48:49.518Z,20.10
2022-10-11T12:51:53.965Z,19.80
2022-10-11T12:55:15.780Z,18.23
2022-10-11T12:58:25.785Z,21.67
2022-10-11T13:01:27.479Z,20.65
2022-10-11T13:04:30.407Z,19.38
2022-10-11T13:07:32.086Z,19.52
2022-10-11T13:10:45.339Z,19.27
2022-10-11T13:13:52.525Z,18.13
2022-10-11T13:17:03.673Z,20.13
2022-10-11T13:20:17.919Z,18.10
2022-10-11T13:23:29.960Z,18.35
2022-10-11T13:26:31.736Z,18.03
2022-10-11T13:29:36.752Z,19.37
2022-10-11T13:32:38.555Z,24.08
2022-10-11T13:35:40.138Z,20.55
2022-10-11T13:38:41.788Z,18.50
2022-10-11T13:41:43.420Z,17.93
2022-10-11T13:44:45.053Z,17.00
2022-10-11T13:47:47.859Z,16.25
2022-10-11T13:51:28.049Z,19.30
2022-10-11T13:54:54.535Z,19.30
2022-10-11T13:57:57.105Z,17.10
2022-10-11T14:01:02.999Z,17.13
2022-10-11T14:04:06.812Z,15.80
2022-10-11T14:07:26.223Z,18.08
2022-10-11T14:10:27.929Z,18.95
2022-10-11T14:13:36.972Z,17.37
2022-10-11T14:16:38.548Z,18.63
2022-10-11T14:19:40.157Z,19.35
2022-10-11T14:22:41.728Z,18.17
2022-10-11T14:25:43.298Z,17.73
2022-10-11T14:28:45.411Z,17.57
2022-10-11T14:31:47.060Z,18.83
2022-10-11T14:34:48.775Z,19.92
2022-10-11T14:37:50.599Z,18.00
2022-10-11T14:40:52.432Z,18.77
2022-10-11T14:43:56.419Z,19.20
2022-10-11T14:46:58.029Z,23.10
2022-10-11T14:49:59.613Z,20.02
2022-10-11T14:53:01.432Z,18.67
2022-10-11T14:56:03.211Z,18.33
2022-10-11T14:59:05.113Z,21.57
2022-10-11T15:02:07.966Z,22.53
2022-10-11T15:05:09.513Z,19.90
2022-10-11T15:08:11.133Z,18.35
2022-10-11T15:11:13.626Z,23.15
2022-10-11T15:14:15.192Z,20.17
2022-10-11T15:17:16.870Z,20.87
2022-10-11T15:20:32.789Z,17.35
2022-10-11T15:23:34.522Z,19.70
2022-10-11T15:26:36.183Z,18.75
2022-10-11T15:29:37.729Z,17.87
2022-10-11T15:32:39.280Z,18.17
2022-10-11T15:35:40.854Z,16.83
2022-10-11T15:38:43.147Z,17.95
2022-10-11T15:41:44.761Z,18.50
2022-10-11T15:44:46.326Z,19.13
2022-10-11T15:47:48.256Z,18.53
2022-10-11T15:50:51.870Z,21.17
2022-10-11T15:53:53.425Z,18.00
2022-10-11T15:56:55.241Z,18.58
2022-10-11T15:59:56.925Z,20.90
2022-10-11T16:02:58.721Z,18.53
2022-10-11T16:06:04.991Z,25.55
2022-10-11T16:09:07.104Z,17.67
2022-10-11T16:12:08.761Z,20.23
2022-10-11T16:15:10.656Z,20.03
2022-10-11T16:18:14.607Z,18.30
2022-10-11T16:21:16.283Z,19.70
2022-10-11T16:24:17.832Z,20.52
2022-10-11T16:27:19.412Z,18.08
2022-10-11T16:30:21.101Z,20.83
2022-10-11T16:33:22.931Z,17.63
2022-10-11T16:36:40.187Z,20.05
2022-10-11T16:39:41.832Z,22.13
2022-10-11T16:42:44.168Z,21.17
2022-10-11T16:45:45.760Z,21.33
2022-10-11T16:48:47.797Z,20.57
2022-10-11T16:51:50.573Z,21.48
2022-10-11T16:54:53.436Z,19.60
2022-10-11T16:57:55.007Z,22.20
2022-10-11T17:00:56.646Z,21.37
2022-10-11T17:03:58.271Z,22.80
2022-10-11T17:06:59.873Z,21.55
2022-10-11T17:10:01.666Z,24.02
2022-10-11T17:13:03.226Z,21.73
2022-10-11T17:16:05.392Z,21.97
2022-10-11T17:19:14.627Z,22.40
2022-10-11T17:22:17.674Z,23.20
2022-10-11T17:25:19.264Z,24.33
2022-10-11T17:28:20.904Z,22.63
2022-10-11T17:31:22.862Z,20.97
2022-10-11T17:34:24.636Z,24.80
2022-10-11T17:37:26.198Z,27.00
2022-10-11T17:40:27.852Z,21.98
2022-10-11T17:43:29.518Z,24.75
2022-10-11T17:46:33.907Z,25.80
2022-10-11T17:49:35.667Z,28.50
2022-10-11T17:52:37.231Z,21.95
2022-10-11T17:55:42.388Z,22.10
2022-10-11T17:58:44.187Z,20.50
2022-10-11T18:01:45.772Z,20.73
2022-10-11T18:04:47.518Z,20.60
2022-10-11T18:07:52.804Z,20.58
2022-10-11T18:10:54.377Z,22.63
2022-10-11T18:13:55.979Z,22.30
2022-10-11T18:16:57.725Z,21.80
2022-10-11T18:19:59.711Z,20.40
2022-10-11T18:23:01.498Z,16.67
2022-10-11T18:26:19.579Z,15.43
2022-10-11T18:29:21.192Z,15.77
2022-10-11T18:32:22.774Z,18.07
2022-10-11T18:35:24.358Z,17.23
2022-10-11T18:38:25.954Z,17.45
2022-10-11T18:41:32.013Z,16.83
2022-10-11T18:44:33.678Z,16.95
2022-10-11T18:47:35.214Z,14.53
2022-10-11T18:50:38.007Z,18.27
2022-10-11T18:53:39.608Z,15.10
2022-10-11T18:56:41.231Z,17.73
2022-10-11T18:59:42.803Z,17.38
2022-10-11T19:02:44.391Z,19.07
2022-10-11T19:05:46.204Z,20.00
2022-10-11T19:08:52.155Z,18.00
2022-10-11T19:11:54.658Z,18.25
2022-10-11T19:14:57.118Z,17.83
2022-10-11T19:17:58.793Z,16.80
2022-10-11T19:21:08.483Z,21.13
2022-10-11T19:24:10.244Z,23.08
2022-10-11T19:27:11.805Z,16.45
2022-10-11T19:30:13.437Z,17.92
2022-10-11T19:33:14.993Z,18.63
2022-10-11T19:36:16.737Z,18.27
2022-10-11T19:39:18.421Z,19.40
2022-10-11T19:42:20.148Z,19.67
2022-10-11T19:45:21.709Z,19.58
2022-10-11T19:48:23.258Z,19.73
2022-10-11T19:51:26.071Z,20.90
2022-10-11T19:54:27.681Z,22.15
2022-10-11T19:57:29.378Z,20.98
2022-10-11T20:00:31.133Z,20.63
2022-10-11T20:03:32.764Z,24.23
2022-10-11T20:06:38.594Z,21.20
2022-10-11T20:09:40.718Z,21.15
2022-10-11T20:12:45.782Z,23.30
2022-10-11T20:15:47.649Z,23.45
2022-10-11T20:18:49.258Z,22.13
2022-10-11T20:21:52.136Z,23.97
2022-10-11T20:24:53.728Z,27.88
2022-10-11T20:27:55.283Z,23.15
2022-10-11T20:30:57.040Z,25.85
2022-10-11T20:34:01.462Z,27.53
2022-10-11T20:37:03.017Z,27.07
2022-10-11T20:40:05.015Z,25.33
2022-10-11T20:43:06.935Z,25.55
2022-10-11T20:46:10.221Z,27.52
2022-10-11T20:49:11.854Z,25.37
2022-10-11T20:52:13.497Z,27.47
2022-10-11T20:55:15.207Z,29.50
2022-10-11T20:58:17.010Z,26.15
2022-10-11T21:01:20.557Z,28.27
2022-10-11T21:04:22.233Z,27.77
2022-10-11T21:07:23.885Z,27.57
2022-10-11T21:10:25.460Z,28.65
2022-10-11T21:13:27.151Z,26.48
2022-10-11T21:16:33.064Z,27.35
2022-10-11T21:19:34.637Z,30.50
2022-10-11T21:22:36.541Z,29.47
2022-10-11T21:25:38.382Z,27.40
2022-10-11T21:28:40.358Z,26.70
2022-10-11T21:31:41.998Z,26.50
2022-10-11T21:34:43.559Z,28.87
2022-10-11T21:37:45.097Z,30.33
2022-10-11T21:40:47.003Z,30.60
2022-10-11T21:43:48.754Z,27.58
2022-10-11T21:47:07.381Z,29.05
2022-10-11T21:50:09.500Z,28.43
2022-10-11T21:53:11.252Z,27.70
2022-10-11T21:56:12.841Z,28.85
2022-10-11T21:59:14.496Z,29.67
2022-10-11T22:02:16.061Z,30.80
2022-10-11T22:05:17.877Z,29.60
2022-10-11T22:08:19.571Z,28.00
2022-10-11T22:11:21.190Z,28.25
2022-10-11T22:14:22.777Z,29.95
2022-10-11T22:17:24.399Z,29.23
2022-10-11T22:20:26.055Z,30.83
2022-10-11T22:23:27.617Z,28.13
2022-10-11T22:26:30.762Z,29.45
2022-10-11T22:29:34.388Z,30.80
2022-10-11T22:32:36.427Z,30.08
2022-10-11T22:35:38.262Z,28.97
2022-10-11T22:38:41.186Z,26.87
2022-10-11T22:41:42.760Z,28.55
2022-10-11T22:44:44.330Z,31.77
2022-10-11T22:47:45.876Z,27.83
2022-10-11T22:50:47.532Z,28.70
2022-10-11T22:53:49.117Z,31.43
2022-10-11T22:56:50.688Z,32.35
2022-10-11T22:59:52.263Z,33.75
2022-10-11T23:02:58.042Z,31.38
2022-10-11T23:05:59.654Z,34.30
2022-10-11T23:09:02.332Z,32.93
2022-10-11T23:12:04.045Z,39.70
2022-10-11T23:15:06.047Z,35.83
2022-10-11T23:18:12.075Z,38.40
2022-10-11T23:21:13.623Z,36.40
2022-10-11T23:24:15.236Z,40.63
2022-10-11T23:27:16.893Z,40.90
2022-10-11T23:30:18.532Z,38.67
2022-10-11T23:33:24.374Z,36.13
2022-10-11T23:36:26.206Z,42.50
2022-10-11T23:39:27.968Z,40.87
2022-10-11T23:42:29.552Z,42.55
2022-10-11T23:45:31.117Z,43.80
2022-10-11T23:48:35.749Z,42.30
2022-10-11T23:51:37.319Z,41.53
2022-10-11T23:54:38.908Z,44.30
2022-10-11T23:57:40.728Z,41.60
